Pagina principale
METAR-TAF:

METAR-TAF

Aeroporti :

Aeroporto di Harbin-Taiping

Harbin, Cina

latitudine: 45-45N, longitudine: 126-46E, altezza: 143 m

Osservazione

Il bollettino è stato emesso 59 minuti fa, alle 08:00 UTC
Vento 10 kt da sud/sud-ovest
Temperature 31°C
Umidità 75%
Pressione 1004 hPa
Visibilità: 7000 m
Nubi sparse ad un'altezza di 2300 ft

METAR: ZYHB 220800Z 20005MPS 7000 SCT023 31/26 Q1004 NOSIG

Ora: 16:59 (08:59 UTC)

Previsione

Il bollettino è stato emesso 5 ore e 56 minuti fa, alle 03:03 UTC
Previsione valida dal 22 alle 06 UTC al 23 alle 06 UTC
Vento 8 kt da sud/sud-ovest
Visibilità: 6000 m
Nubi sparse ad un'altezza di 3300 ft

TAF: ZYHB 220303Z 2206/2306 21004MPS 6000 SCT033 TX33/2206Z TN23/2221Z

Osservazioni e previsioni meteorologiche di più di 4000 aeroporti (messaggi METAR e TAF).

Le stazioni disponibili sono rappresentate dai dischi gialli e rossi sulla carta.

Puntare il mouse per vedere il nome della stazione.

Clicca sopra per visualizzare le osservazioni e previsioni meteorologiche.

Per cambiare la mappa : fare clic sui pulsanti verdi con una croce nera per ingrandire, il pulsante verde con un trattino per diminuire, o sulla freccia verde per le mappe adiacenti.


METAR-TAF: